Time;durP1;ratioP1;P1;durP2;ratioP2;P2;SDS_P1;SDS_P2;PMS_P1;PMS_P2;Temp;Humidity;BMP_temperature;BMP_pressure;BME280_temperature;BME280_humidity;BME280_pressure;Samples;Min_cycle;Max_cycle;Signal;HPM_P1;HPM_P2
2022/01/25 00:08:21;;;;;;;;;64.67;54.67;;;;;;;;5042400;28;8920;-78
2022/01/25 00:16:07;;;;;;;;;66.75;56.75;;;;;;;;5053706;28;8845;-79
2022/01/25 00:26:58;;;;;;;;;65.00;54.67;;;;;;;;5061199;28;8834;-79
2022/01/25 00:29:33;;;;;;;;;71.00;60.25;;;;;;;;5061850;28;8854;-78
2022/01/25 00:32:01;;;;;;;;;63.25;55.00;;;;;;;;5046009;28;8822;-79
2022/01/25 00:34:28;;;;;;;;;65.33;54.67;;;;;;;;5060092;28;8867;-79
2022/01/25 00:36:55;;;;;;;;;73.75;56.75;;;;;;;;5061156;28;9029;-79
2022/01/25 00:39:23;;;;;;;;;60.00;51.00;;;;;;;;5063142;28;8860;-78
2022/01/25 00:41:51;;;;;;;;;67.00;56.50;;;;;;;;5058441;28;8858;-79
2022/01/25 00:44:20;;;;;;;;;55.33;50.00;;;;;;;;5062008;28;8873;-79
2022/01/25 00:46:47;;;;;;;;;64.50;53.00;;;;;;;;5059299;28;8865;-79
2022/01/25 00:49:25;;;;;;;;;66.75;55.75;;;;;;;;5062416;28;8874;-79
2022/01/25 00:52:06;;;;;;;;;56.00;49.50;;;;;;;;5061179;28;8860;-79
2022/01/25 00:54:39;;;;;;;;;62.33;54.33;;;;;;;;5037851;28;8861;-79
2022/01/25 00:57:08;;;;;;;;;62.67;52.67;;;;;;;;5045106;28;8904;-78
2022/01/25 00:59:35;;;;;;;;;65.67;55.00;;;;;;;;5058469;28;9612;-79
2022/01/25 01:02:06;;;;;;;;;72.25;59.25;;;;;;;;5060782;28;8818;-79
2022/01/25 01:04:33;;;;;;;;;67.00;56.50;;;;;;;;5060577;28;9691;-78
2022/01/25 01:07:03;;;;;;;;;68.25;56.75;;;;;;;;5060797;28;8862;-78
2022/01/25 01:09:33;;;;;;;;;69.25;59.25;;;;;;;;5039364;28;8859;-78
2022/01/25 01:12:09;;;;;;;;;52.33;48.00;;;;;;;;5057387;28;9015;-78
2022/01/25 01:15:04;;;;;;;;;61.75;53.25;;;;;;;;5042232;28;8842;-78
2022/01/25 01:28:48;;;;;;;;;66.75;57.50;;;;;;;;5059377;28;8850;-78
2022/01/25 01:29:10;;;;;;;;;71.00;55.67;;;;;;;;5058436;28;8853;-79
2022/01/25 01:31:54;;;;;;;;;63.33;55.00;;;;;;;;5045437;28;8821;-79
2022/01/25 01:40:10;;;;;;;;;52.33;48.67;;;;;;;;5056265;28;8969;-79
2022/01/25 01:42:55;;;;;;;;;64.33;55.00;;;;;;;;5058144;28;8956;-79
2022/01/25 01:45:36;;;;;;;;;52.67;48.67;;;;;;;;5060402;28;8901;-79
2022/01/25 01:48:09;;;;;;;;;54.33;47.00;;;;;;;;5060587;28;9300;-80
2022/01/25 01:50:39;;;;;;;;;49.33;46.67;;;;;;;;5061583;28;9045;-80
2022/01/25 01:53:08;;;;;;;;;55.00;50.33;;;;;;;;5061885;28;8882;-81
2022/01/25 01:55:36;;;;;;;;;53.00;49.33;;;;;;;;5061947;28;8846;-80
2022/01/25 01:58:04;;;;;;;;;57.33;51.33;;;;;;;;5060823;28;8850;-79
2022/01/25 02:00:35;;;;;;;;;60.33;52.00;;;;;;;;5058641;28;8921;-79
2022/01/25 02:03:03;;;;;;;;;55.33;50.33;;;;;;;;5061488;28;8995;-80
2022/01/25 02:05:33;;;;;;;;;39.00;39.00;;;;;;;;5060239;28;8846;-79
2022/01/25 02:08:01;;;;;;;;;60.67;51.00;;;;;;;;5057971;28;8850;-79
2022/01/25 02:10:29;;;;;;;;;48.00;46.33;;;;;;;;5060756;28;9576;-80
2022/01/25 02:12:57;;;;;;;;;58.00;50.00;;;;;;;;5040110;28;8862;-80
2022/01/25 02:15:26;;;;;;;;;46.00;43.67;;;;;;;;5061598;28;9004;-80
2022/01/25 02:22:23;;;;;;;;;51.33;47.33;;;;;;;;5049414;28;8863;-79
2022/01/25 02:23:30;;;;;;;;;53.00;48.33;;;;;;;;5061879;28;8826;-79
2022/01/25 02:25:59;;;;;;;;;54.00;50.00;;;;;;;;5058902;28;9619;-78
2022/01/25 02:28:28;;;;;;;;;55.67;51.00;;;;;;;;5061638;28;8849;-79
2022/01/25 02:30:55;;;;;;;;;49.33;46.33;;;;;;;;5048960;28;8937;-80
2022/01/25 02:33:23;;;;;;;;;52.33;48.00;;;;;;;;5060975;28;8892;-79
2022/01/25 02:35:52;;;;;;;;;47.67;44.67;;;;;;;;5057849;28;8870;-80
2022/01/25 02:38:24;;;;;;;;;48.67;45.33;;;;;;;;5061322;28;8862;-80
2022/01/25 02:40:51;;;;;;;;;49.00;44.33;;;;;;;;5049941;28;8882;-79
2022/01/25 02:43:21;;;;;;;;;51.33;48.33;;;;;;;;5058269;28;8983;-80
2022/01/25 02:46:06;;;;;;;;;48.00;46.33;;;;;;;;5059923;28;8846;-79
2022/01/25 02:48:48;;;;;;;;;54.00;48.67;;;;;;;;5058726;28;8984;-80
2022/01/25 02:51:17;;;;;;;;;48.33;43.67;;;;;;;;5042201;28;9674;-80
2022/01/25 02:53:44;;;;;;;;;45.00;43.00;;;;;;;;5046406;28;8845;-80
2022/01/25 02:56:13;;;;;;;;;52.00;48.00;;;;;;;;5059104;28;8893;-78
2022/01/25 02:58:41;;;;;;;;;46.33;45.00;;;;;;;;5061250;28;8885;-78
2022/01/25 03:01:08;;;;;;;;;45.00;43.00;;;;;;;;5061252;28;9594;-79
2022/01/25 03:03:36;;;;;;;;;54.00;50.00;;;;;;;;5064918;28;8874;-78
2022/01/25 03:06:03;;;;;;;;;47.33;45.33;;;;;;;;5062534;28;8877;-78
2022/01/25 03:08:33;;;;;;;;;54.75;50.25;;;;;;;;5057781;28;8889;-79
2022/01/25 03:11:00;;;;;;;;;52.33;48.33;;;;;;;;5045192;28;8880;-79
2022/01/25 03:13:32;;;;;;;;;47.67;46.67;;;;;;;;5063945;28;8880;-80
2022/01/25 03:16:04;;;;;;;;;58.67;51.33;;;;;;;;5064115;28;8992;-80
2022/01/25 03:18:45;;;;;;;;;42.33;42.33;;;;;;;;5061628;28;8854;-79
2022/01/25 03:24:06;;;;;;;;;51.33;48.33;;;;;;;;5061831;28;8880;-80
2022/01/25 03:26:35;;;;;;;;;51.25;47.75;;;;;;;;5058086;28;8865;-80
2022/01/25 03:29:03;;;;;;;;;53.33;48.33;;;;;;;;5063832;28;8834;-80
2022/01/25 03:31:31;;;;;;;;;56.25;51.00;;;;;;;;5062144;28;8798;-79
2022/01/25 03:33:59;;;;;;;;;52.25;48.50;;;;;;;;5063118;28;8934;-78
2022/01/25 03:36:27;;;;;;;;;58.67;51.67;;;;;;;;5063205;28;10159;-79
2022/01/25 03:38:54;;;;;;;;;57.00;50.67;;;;;;;;5046512;28;8853;-79
2022/01/25 03:41:24;;;;;;;;;65.00;54.67;;;;;;;;5056661;28;8853;-79
2022/01/25 03:43:54;;;;;;;;;68.25;55.00;;;;;;;;5062233;28;8861;-79
2022/01/25 03:46:30;;;;;;;;;62.50;53.25;;;;;;;;5063837;28;8932;-79
2022/01/25 03:51:42;;;;;;;;;60.33;53.33;;;;;;;;5060172;28;8865;-78
2022/01/25 03:54:10;;;;;;;;;63.33;51.67;;;;;;;;5062194;28;8865;-79
2022/01/25 03:56:39;;;;;;;;;58.00;51.00;;;;;;;;5061591;28;8874;-78
2022/01/25 03:59:07;;;;;;;;;54.00;48.00;;;;;;;;5061895;28;8838;-78
2022/01/25 04:01:35;;;;;;;;;53.67;48.00;;;;;;;;5061626;28;8814;-78
2022/01/25 04:04:06;;;;;;;;;54.33;50.33;;;;;;;;5039814;28;8856;-78
2022/01/25 04:06:36;;;;;;;;;54.00;48.33;;;;;;;;5060777;28;8881;-79
2022/01/25 04:09:06;;;;;;;;;40.67;39.33;;;;;;;;5044879;28;8867;-79
2022/01/25 04:11:34;;;;;;;;;40.67;40.67;;;;;;;;5058779;28;8866;-79
2022/01/25 04:14:03;;;;;;;;;48.33;43.33;;;;;;;;5058259;28;8884;-79
2022/01/25 04:16:32;;;;;;;;;49.33;47.00;;;;;;;;5057859;28;8850;-79
2022/01/25 04:19:20;;;;;;;;;42.33;39.00;;;;;;;;5057370;28;8848;-79
2022/01/25 04:24:55;;;;;;;;;45.00;43.33;;;;;;;;5054821;28;9623;-78
2022/01/25 04:27:22;;;;;;;;;47.67;45.33;;;;;;;;5061919;28;8850;-79
2022/01/25 04:29:52;;;;;;;;;56.67;47.33;;;;;;;;5039780;28;8894;-78
2022/01/25 04:32:19;;;;;;;;;46.00;42.33;;;;;;;;5060494;28;8810;-78
2022/01/25 04:35:07;;;;;;;;;46.33;45.00;;;;;;;;5058493;28;8842;-79
2022/01/25 04:54:05;;;;;;;;;64.50;55.25;;;;;;;;5049724;28;8891;-79
2022/01/25 04:56:38;;;;;;;;;46.67;43.67;;;;;;;;5059393;28;8846;-79
2022/01/25 04:59:12;;;;;;;;;58.00;48.67;;;;;;;;5061221;28;8900;-79
2022/01/25 05:01:41;;;;;;;;;51.33;48.00;;;;;;;;5044990;28;8921;-79
2022/01/25 05:04:13;;;;;;;;;65.33;53.00;;;;;;;;5060051;28;8869;-78
2022/01/25 05:06:42;;;;;;;;;31.00;28.67;;;;;;;;5056403;28;8862;-76
2022/01/25 05:09:12;;;;;;;;;64.67;56.00;;;;;;;;5060771;28;8862;-75
2022/01/25 05:11:44;;;;;;;;;71.50;60.00;;;;;;;;5044768;28;8846;-79
2022/01/25 05:14:22;;;;;;;;;73.00;60.50;;;;;;;;5063974;28;8854;-77
2022/01/25 05:16:54;;;;;;;;;65.00;54.75;;;;;;;;5061611;28;8865;-77
2022/01/25 05:22:25;;;;;;;;;74.00;62.25;;;;;;;;5016485;28;8907;-76
2022/01/25 05:24:54;;;;;;;;;70.50;59.75;;;;;;;;5050411;28;8932;-75
2022/01/25 05:27:23;;;;;;;;;69.67;58.00;;;;;;;;5058977;28;8858;-78
2022/01/25 05:29:51;;;;;;;;;67.67;56.00;;;;;;;;5058553;28;8865;-76
2022/01/25 05:32:20;;;;;;;;;71.75;60.00;;;;;;;;5039613;28;8820;-77
2022/01/25 05:34:47;;;;;;;;;68.00;54.33;;;;;;;;5039307;28;8878;-78
2022/01/25 05:37:15;;;;;;;;;67.00;52.33;;;;;;;;5021200;28;8883;-77
2022/01/25 05:39:42;;;;;;;;;68.00;55.67;;;;;;;;5041337;28;8852;-77
2022/01/25 05:42:32;;;;;;;;;68.33;58.67;;;;;;;;5039922;28;8872;-77
2022/01/25 05:45:12;;;;;;;;;54.33;49.00;;;;;;;;5037170;28;8852;-79
2022/01/25 05:47:43;;;;;;;;;54.00;49.00;;;;;;;;5021448;28;8955;-78
2022/01/25 05:50:12;;;;;;;;;56.00;50.33;;;;;;;;5039661;28;8876;-78
2022/01/25 05:52:39;;;;;;;;;48.00;44.00;;;;;;;;5037074;28;8854;-78
2022/01/25 05:55:09;;;;;;;;;53.67;47.00;;;;;;;;5038344;28;8882;-79
2022/01/25 05:57:37;;;;;;;;;65.00;56.00;;;;;;;;5038176;28;8886;-80
2022/01/25 06:00:07;;;;;;;;;64.00;54.67;;;;;;;;5037722;28;9837;-81
2022/01/25 06:02:35;;;;;;;;;68.67;57.00;;;;;;;;5061007;28;8857;-80
2022/01/25 06:05:05;;;;;;;;;61.67;52.67;;;;;;;;5059398;28;8853;-81
2022/01/25 06:07:33;;;;;;;;;66.33;54.33;;;;;;;;5058716;28;8992;-81
2022/01/25 06:10:00;;;;;;;;;50.00;47.33;;;;;;;;5061706;28;8852;-80
2022/01/25 06:12:27;;;;;;;;;61.67;51.00;;;;;;;;5060042;28;8881;-80
2022/01/25 06:14:55;;;;;;;;;60.33;50.00;;;;;;;;5058779;28;8882;-80
2022/01/25 06:17:22;;;;;;;;;50.67;46.67;;;;;;;;5042517;28;9642;-80
2022/01/25 06:19:49;;;;;;;;;59.33;52.33;;;;;;;;5059877;28;8858;-79
2022/01/25 06:22:19;;;;;;;;;53.33;48.33;;;;;;;;5058165;28;8850;-81
2022/01/25 06:24:46;;;;;;;;;58.33;50.00;;;;;;;;5058735;28;8861;-80
2022/01/25 06:27:13;;;;;;;;;52.67;45.67;;;;;;;;5064596;28;8856;-78
2022/01/25 06:29:41;;;;;;;;;60.67;52.00;;;;;;;;5061481;28;8934;-81
2022/01/25 06:32:09;;;;;;;;;62.00;53.33;;;;;;;;5061501;28;8891;-79
2022/01/25 06:34:37;;;;;;;;;72.67;57.67;;;;;;;;5063527;28;8891;-79
2022/01/25 06:37:04;;;;;;;;;67.33;56.33;;;;;;;;5064251;28;8925;-84
2022/01/25 06:39:33;;;;;;;;;66.67;56.00;;;;;;;;5055118;28;8852;-77
2022/01/25 06:42:01;;;;;;;;;60.33;51.67;;;;;;;;5044983;28;8882;-85
2022/01/25 06:44:29;;;;;;;;;65.00;53.00;;;;;;;;5063386;28;8854;-84
2022/01/25 06:46:56;;;;;;;;;71.00;58.00;;;;;;;;5062497;28;8896;-80
2022/01/25 06:49:23;;;;;;;;;64.67;53.00;;;;;;;;5059175;28;8875;-77
2022/01/25 06:51:50;;;;;;;;;66.00;55.00;;;;;;;;5058904;28;8880;-76
2022/01/25 06:54:18;;;;;;;;;63.00;55.00;;;;;;;;5065448;28;8900;-81
2022/01/25 06:56:47;;;;;;;;;59.33;50.00;;;;;;;;5063625;28;8881;-80
2022/01/25 06:59:15;;;;;;;;;60.33;51.00;;;;;;;;5065504;28;8865;-82
2022/01/25 07:01:42;;;;;;;;;59.67;52.67;;;;;;;;5064619;28;8921;-82
2022/01/25 07:04:10;;;;;;;;;53.33;47.67;;;;;;;;5063654;28;8846;-77
2022/01/25 07:06:37;;;;;;;;;59.33;50.67;;;;;;;;5059907;28;8946;-79
2022/01/25 07:09:05;;;;;;;;;46.33;45.00;;;;;;;;5061874;28;8854;-79
2022/01/25 07:11:32;;;;;;;;;65.00;53.67;;;;;;;;5061238;28;8874;-78
2022/01/25 07:14:01;;;;;;;;;46.00;44.33;;;;;;;;5044411;28;8820;-81
2022/01/25 07:16:28;;;;;;;;;53.67;48.67;;;;;;;;5063462;28;8858;-73
2022/01/25 07:18:55;;;;;;;;;59.00;49.67;;;;;;;;5045517;28;8861;-81
2022/01/25 07:21:23;;;;;;;;;54.67;47.67;;;;;;;;5062802;28;8842;-81
2022/01/25 07:23:50;;;;;;;;;56.67;49.33;;;;;;;;5062442;28;8853;-78
2022/01/25 07:26:17;;;;;;;;;71.00;56.33;;;;;;;;5045050;28;8866;-83
2022/01/25 07:28:44;;;;;;;;;56.00;50.33;;;;;;;;5062167;28;8858;-80
2022/01/25 07:31:13;;;;;;;;;65.00;53.33;;;;;;;;5060814;28;8929;-81
2022/01/25 07:33:40;;;;;;;;;56.33;50.33;;;;;;;;5063593;28;8854;-82
2022/01/25 07:36:08;;;;;;;;;49.00;46.00;;;;;;;;5064397;28;8996;-76
2022/01/25 07:38:35;;;;;;;;;68.67;56.00;;;;;;;;5043609;28;8870;-80
2022/01/25 07:41:02;;;;;;;;;59.67;52.67;;;;;;;;5061517;28;9614;-80
2022/01/25 07:43:29;;;;;;;;;35.67;34.00;;;;;;;;5063691;28;8860;-79
2022/01/25 07:45:59;;;;;;;;;54.67;49.67;;;;;;;;5065180;28;8881;-79
2022/01/25 07:48:28;;;;;;;;;64.67;52.00;;;;;;;;5061124;28;8882;-75
2022/01/25 07:50:55;;;;;;;;;56.33;48.67;;;;;;;;5046232;28;8897;-83
2022/01/25 07:53:23;;;;;;;;;60.00;51.33;;;;;;;;5065260;28;9760;-83
2022/01/25 07:55:50;;;;;;;;;71.00;56.33;;;;;;;;5064970;28;8866;-83
2022/01/25 07:58:18;;;;;;;;;46.00;45.00;;;;;;;;5065314;28;8862;-82
2022/01/25 08:00:45;;;;;;;;;50.00;45.00;;;;;;;;5030219;28;8816;-83
2022/01/25 08:03:12;;;;;;;;;59.67;51.33;;;;;;;;5065859;28;8862;-81
2022/01/25 08:05:44;;;;;;;;;59.33;47.00;;;;;;;;5064991;28;8874;-79
2022/01/25 08:08:12;;;;;;;;;64.00;53.33;;;;;;;;5065632;28;8860;-80
2022/01/25 08:10:40;;;;;;;;;56.67;51.33;;;;;;;;5054714;28;8900;-82
2022/01/25 08:13:07;;;;;;;;;68.33;55.00;;;;;;;;5058880;28;8874;-78
2022/01/25 08:15:34;;;;;;;;;61.00;51.67;;;;;;;;5062812;28;8858;-76
2022/01/25 08:18:02;;;;;;;;;72.33;62.00;;;;;;;;5063028;28;8878;-78
2022/01/25 08:20:29;;;;;;;;;65.00;50.00;;;;;;;;5060362;28;9555;-84
2022/01/25 08:22:58;;;;;;;;;68.67;54.00;;;;;;;;5063361;28;8895;-84
2022/01/25 08:25:25;;;;;;;;;46.33;43.00;;;;;;;;5064484;28;9653;-83
2022/01/25 08:27:52;;;;;;;;;56.33;49.33;;;;;;;;5063901;28;8878;-84
2022/01/25 08:30:20;;;;;;;;;56.33;50.67;;;;;;;;5058458;28;9004;-81
2022/01/25 08:32:47;;;;;;;;;48.33;44.67;;;;;;;;5064782;28;9619;-83
2022/01/25 08:35:14;;;;;;;;;65.33;52.33;;;;;;;;5064722;28;8873;-83
2022/01/25 08:37:41;;;;;;;;;48.33;45.67;;;;;;;;5065882;28;8838;-82
2022/01/25 08:40:11;;;;;;;;;52.00;48.00;;;;;;;;5061132;28;8866;-83
2022/01/25 08:42:39;;;;;;;;;40.33;40.33;;;;;;;;5063257;28;8907;-83
2022/01/25 08:45:08;;;;;;;;;54.33;46.67;;;;;;;;5064794;28;8876;-82
2022/01/25 08:47:37;;;;;;;;;46.67;45.00;;;;;;;;5062566;28;8911;-84
2022/01/25 08:50:04;;;;;;;;;48.00;46.33;;;;;;;;5060719;28;8834;-83
2022/01/25 08:52:32;;;;;;;;;52.33;43.00;;;;;;;;5060773;28;8976;-82
2022/01/25 08:54:59;;;;;;;;;49.00;45.67;;;;;;;;5065337;28;8853;-82
2022/01/25 08:57:27;;;;;;;;;58.00;49.00;;;;;;;;5062600;28;8882;-82
2022/01/25 08:59:55;;;;;;;;;53.67;48.33;;;;;;;;5062554;28;8892;-81
2022/01/25 09:02:22;;;;;;;;;58.00;50.00;;;;;;;;5061846;28;8800;-82
2022/01/25 09:04:49;;;;;;;;;62.33;52.67;;;;;;;;5063528;28;8906;-82
2022/01/25 09:07:16;;;;;;;;;52.00;48.00;;;;;;;;5064139;28;8858;-83
2022/01/25 09:09:44;;;;;;;;;66.67;54.67;;;;;;;;5060531;28;8903;-82
2022/01/25 09:12:12;;;;;;;;;62.33;52.33;;;;;;;;5059686;28;8857;-82
2022/01/25 09:14:41;;;;;;;;;61.33;53.00;;;;;;;;5061477;28;8866;-82
2022/01/25 09:17:10;;;;;;;;;64.67;54.00;;;;;;;;5064079;28;8857;-78
2022/01/25 09:19:38;;;;;;;;;75.67;61.00;;;;;;;;5061381;28;8870;-79
2022/01/25 09:22:05;;;;;;;;;78.67;63.00;;;;;;;;5062387;28;8877;-81
2022/01/25 09:24:33;;;;;;;;;71.67;59.00;;;;;;;;5060332;28;8872;-79
2022/01/25 09:27:01;;;;;;;;;63.33;53.00;;;;;;;;5062573;28;9667;-79
2022/01/25 09:29:29;;;;;;;;;62.00;51.00;;;;;;;;5064300;28;8913;-81
2022/01/25 09:31:57;;;;;;;;;66.67;53.33;;;;;;;;5060301;28;8836;-80
2022/01/25 09:34:26;;;;;;;;;63.00;53.67;;;;;;;;5063955;28;8874;-80
2022/01/25 09:36:54;;;;;;;;;83.33;66.00;;;;;;;;5045503;28;8866;-79
2022/01/25 09:39:22;;;;;;;;;59.67;49.67;;;;;;;;5063304;28;9517;-80
2022/01/25 09:41:49;;;;;;;;;64.33;51.67;;;;;;;;5062642;28;8877;-79
2022/01/25 09:44:16;;;;;;;;;56.33;48.67;;;;;;;;5063824;28;8909;-79
2022/01/25 09:46:44;;;;;;;;;58.00;51.33;;;;;;;;5063102;28;9793;-79
2022/01/25 09:49:14;;;;;;;;;53.00;48.00;;;;;;;;5061691;28;8866;-78
2022/01/25 09:51:42;;;;;;;;;64.00;51.33;;;;;;;;5059323;28;8870;-79
2022/01/25 09:54:10;;;;;;;;;46.00;42.67;;;;;;;;5060294;28;8931;-79
2022/01/25 09:56:37;;;;;;;;;44.00;41.67;;;;;;;;5054814;28;8850;-78
2022/01/25 09:59:05;;;;;;;;;62.00;46.67;;;;;;;;5061121;28;8885;-79
2022/01/25 10:01:36;;;;;;;;;50.33;45.33;;;;;;;;5062051;28;8814;-79
2022/01/25 10:04:06;;;;;;;;;54.67;44.67;;;;;;;;5061910;28;8853;-79
2022/01/25 10:06:34;;;;;;;;;55.67;45.33;;;;;;;;5061805;28;10018;-79
2022/01/25 10:09:02;;;;;;;;;50.67;42.33;;;;;;;;5062523;28;8890;-79
2022/01/25 10:11:29;;;;;;;;;57.33;46.33;;;;;;;;5061416;28;9691;-80
2022/01/25 10:13:58;;;;;;;;;49.00;42.33;;;;;;;;5061967;28;8862;-80
2022/01/25 10:16:32;;;;;;;;;58.33;48.00;;;;;;;;5040889;28;8874;-80
2022/01/25 10:19:01;;;;;;;;;56.33;45.00;;;;;;;;5062792;28;8875;-79
2022/01/25 10:21:31;;;;;;;;;46.00;44.67;;;;;;;;5060793;28;8853;-80
2022/01/25 10:24:18;;;;;;;;;66.33;49.33;;;;;;;;5054749;28;8888;-79
2022/01/25 10:26:49;;;;;;;;;56.00;46.00;;;;;;;;5051872;28;8838;-80
2022/01/25 10:29:18;;;;;;;;;48.67;43.00;;;;;;;;5061542;28;8885;-80
2022/01/25 10:31:47;;;;;;;;;51.33;45.00;;;;;;;;5050502;28;8804;-80
2022/01/25 10:34:17;;;;;;;;;43.00;38.00;;;;;;;;5059483;28;8861;-81
2022/01/25 10:36:48;;;;;;;;;65.67;52.33;;;;;;;;5062391;28;9004;-80
2022/01/25 10:39:27;;;;;;;;;61.67;48.00;;;;;;;;5062675;28;8983;-80
2022/01/25 10:42:03;;;;;;;;;74.00;53.33;;;;;;;;5059428;28;8903;-81
2022/01/25 10:44:47;;;;;;;;;76.00;61.67;;;;;;;;5060337;28;8889;-81
2022/01/25 10:47:14;;;;;;;;;82.33;64.00;;;;;;;;5059665;28;8870;-81
2022/01/25 10:49:45;;;;;;;;;88.33;64.33;;;;;;;;5057557;28;8949;-79
2022/01/25 10:52:12;;;;;;;;;77.00;60.67;;;;;;;;5060631;28;8845;-80
2022/01/25 10:54:42;;;;;;;;;87.33;66.67;;;;;;;;5055802;28;8856;-82
2022/01/25 10:57:19;;;;;;;;;87.00;65.33;;;;;;;;5062072;28;8877;-80
2022/01/25 10:59:58;;;;;;;;;81.00;63.33;;;;;;;;5022436;28;8856;-81
2022/01/25 11:02:25;;;;;;;;;72.67;58.00;;;;;;;;5061052;28;8838;-81
2022/01/25 11:04:53;;;;;;;;;78.67;56.00;;;;;;;;5052987;28;8867;-81
2022/01/25 11:07:20;;;;;;;;;66.33;54.00;;;;;;;;5062058;28;8909;-80
2022/01/25 11:09:49;;;;;;;;;52.67;45.33;;;;;;;;5058802;28;8858;-80
2022/01/25 11:12:19;;;;;;;;;67.67;50.67;;;;;;;;5062624;28;8901;-81
2022/01/25 11:14:57;;;;;;;;;78.00;59.33;;;;;;;;5066320;28;8936;-81
2022/01/25 11:17:26;;;;;;;;;54.00;46.33;;;;;;;;5056440;28;8889;-81
2022/01/25 11:19:54;;;;;;;;;58.67;48.00;;;;;;;;5064954;28;8874;-81
2022/01/25 11:22:22;;;;;;;;;64.33;48.33;;;;;;;;5064387;28;8861;-82
2022/01/25 11:24:53;;;;;;;;;63.33;48.33;;;;;;;;5064836;28;9488;-81
2022/01/25 11:27:23;;;;;;;;;65.00;55.67;;;;;;;;5065573;28;8862;-81
2022/01/25 11:29:51;;;;;;;;;52.67;45.00;;;;;;;;5070637;28;8850;-80
2022/01/25 11:32:23;;;;;;;;;68.33;49.00;;;;;;;;5065987;28;8820;-81
2022/01/25 11:34:51;;;;;;;;;56.33;48.33;;;;;;;;5064767;28;8854;-82
2022/01/25 11:37:19;;;;;;;;;64.67;55.00;;;;;;;;5044958;28;8877;-82
2022/01/25 11:39:48;;;;;;;;;53.67;44.67;;;;;;;;5059435;28;8869;-83
2022/01/25 11:42:19;;;;;;;;;61.67;48.67;;;;;;;;5062355;28;8858;-80
2022/01/25 11:44:48;;;;;;;;;52.33;43.33;;;;;;;;5062192;28;8879;-84
2022/01/25 11:47:17;;;;;;;;;55.00;47.33;;;;;;;;5049207;28;9534;-82
2022/01/25 11:49:55;;;;;;;;;60.00;49.67;;;;;;;;5065240;28;8920;-79
2022/01/25 11:52:24;;;;;;;;;66.33;49.33;;;;;;;;5063595;28;8861;-82
2022/01/25 11:54:53;;;;;;;;;62.67;49.33;;;;;;;;5056799;28;9639;-79
2022/01/25 11:57:24;;;;;;;;;55.67;48.33;;;;;;;;5061903;28;8881;-83
2022/01/25 11:59:53;;;;;;;;;56.67;44.33;;;;;;;;5056858;28;8892;-79
2022/01/25 12:02:39;;;;;;;;;62.33;47.67;;;;;;;;5058241;28;8949;-80
2022/01/25 12:05:07;;;;;;;;;52.67;42.00;;;;;;;;5062499;28;8850;-77
2022/01/25 12:07:39;;;;;;;;;60.00;49.67;;;;;;;;5046826;28;8995;-80
2022/01/25 12:10:31;;;;;;;;;66.67;53.33;;;;;;;;5059928;28;8856;-79
2022/01/25 12:13:13;;;;;;;;;66.00;49.00;;;;;;;;5055261;28;8895;-79
2022/01/25 12:15:40;;;;;;;;;64.67;49.33;;;;;;;;5062750;28;8868;-78
2022/01/25 12:18:10;;;;;;;;;53.33;45.67;;;;;;;;5062449;28;8886;-79
2022/01/25 12:20:48;;;;;;;;;56.67;48.00;;;;;;;;5063083;28;8870;-79
2022/01/25 12:23:19;;;;;;;;;59.00;50.00;;;;;;;;5051393;28;8862;-80
2022/01/25 12:25:53;;;;;;;;;47.00;43.00;;;;;;;;5061617;28;8903;-81
2022/01/25 12:28:27;;;;;;;;;65.00;47.33;;;;;;;;5063191;28;8865;-77
2022/01/25 12:30:54;;;;;;;;;63.67;51.67;;;;;;;;5054348;28;8855;-82
2022/01/25 12:33:23;;;;;;;;;72.00;55.00;;;;;;;;5064066;28;8878;-80
2022/01/25 12:35:54;;;;;;;;;77.33;54.67;;;;;;;;5062763;28;8857;-80
2022/01/25 12:38:23;;;;;;;;;69.00;54.67;;;;;;;;5062514;28;8984;-80
2022/01/25 12:40:55;;;;;;;;;58.33;49.67;;;;;;;;5056858;28;8856;-76
2022/01/25 12:43:26;;;;;;;;;62.33;47.00;;;;;;;;5062493;28;8874;-82
2022/01/25 12:45:57;;;;;;;;;80.67;60.00;;;;;;;;5060637;28;8851;-82
2022/01/25 12:48:27;;;;;;;;;74.67;56.67;;;;;;;;5062706;28;8846;-79
2022/01/25 12:50:58;;;;;;;;;59.00;49.00;;;;;;;;5063683;28;8927;-80
2022/01/25 12:53:27;;;;;;;;;73.00;58.67;;;;;;;;5063544;28;8911;-81
2022/01/25 12:55:57;;;;;;;;;71.00;54.00;;;;;;;;5060428;28;8857;-82
2022/01/25 12:58:27;;;;;;;;;76.33;56.33;;;;;;;;5062314;28;8940;-82
2022/01/25 13:00:57;;;;;;;;;63.00;55.00;;;;;;;;5060015;28;8794;-82
2022/01/25 13:03:29;;;;;;;;;56.67;47.67;;;;;;;;5060525;28;9539;-82
2022/01/25 13:05:59;;;;;;;;;65.00;50.33;;;;;;;;5055934;28;8988;-82
2022/01/25 13:08:30;;;;;;;;;66.67;54.00;;;;;;;;5061918;28;8853;-80
2022/01/25 13:11:18;;;;;;;;;65.33;53.00;;;;;;;;5054267;28;8950;-81
2022/01/25 13:13:59;;;;;;;;;67.33;52.33;;;;;;;;5052830;28;8899;-82
2022/01/25 13:16:44;;;;;;;;;64.67;49.00;;;;;;;;5063342;28;8849;-82
2022/01/25 13:19:12;;;;;;;;;69.00;50.00;;;;;;;;5062596;28;8864;-81
2022/01/25 13:21:42;;;;;;;;;68.67;50.00;;;;;;;;5062548;28;8870;-81
2022/01/25 13:24:15;;;;;;;;;71.00;58.67;;;;;;;;5063082;28;8874;-82
2022/01/25 13:26:59;;;;;;;;;63.33;49.67;;;;;;;;5061849;28;8904;-81
2022/01/25 13:32:21;;;;;;;;;71.33;50.67;;;;;;;;5050972;28;8816;-81
2022/01/25 13:35:21;;;;;;;;;71.00;55.00;;;;;;;;5060526;28;8846;-81
2022/01/25 13:38:07;;;;;;;;;67.67;54.67;;;;;;;;5054320;28;8862;-81
2022/01/25 13:40:45;;;;;;;;;79.00;61.00;;;;;;;;5049331;28;8919;-81
2022/01/25 13:45:42;;;;;;;;;67.00;53.67;;;;;;;;5050745;28;8877;-81
2022/01/25 13:46:21;;;;;;;;;67.33;55.33;;;;;;;;5048866;28;8845;-81
2022/01/25 13:48:50;;;;;;;;;81.00;58.33;;;;;;;;5060502;28;8862;-81
2022/01/25 13:51:20;;;;;;;;;83.00;64.00;;;;;;;;5062426;28;9522;-81
2022/01/25 13:53:52;;;;;;;;;85.33;60.00;;;;;;;;5061393;28;8970;-81
2022/01/25 13:56:19;;;;;;;;;70.67;52.33;;;;;;;;5062332;28;8869;-81
2022/01/25 13:58:50;;;;;;;;;75.00;60.67;;;;;;;;5052003;28;9003;-81
2022/01/25 14:01:21;;;;;;;;;85.00;64.00;;;;;;;;5061175;28;9612;-81
2022/01/25 14:03:54;;;;;;;;;78.33;57.33;;;;;;;;5062743;28;8900;-81
2022/01/25 14:06:23;;;;;;;;;75.67;57.67;;;;;;;;5061876;28;9042;-81
2022/01/25 14:08:52;;;;;;;;;68.00;50.33;;;;;;;;5051800;28;8908;-82
2022/01/25 14:11:26;;;;;;;;;81.33;61.33;;;;;;;;5054481;28;8891;-81
2022/01/25 14:24:55;;;;;;;;;72.67;58.00;;;;;;;;5061248;28;8814;-80
2022/01/25 14:27:26;;;;;;;;;70.33;55.00;;;;;;;;5061714;28;8868;-80
2022/01/25 14:29:54;;;;;;;;;62.00;46.67;;;;;;;;5058142;28;8924;-79
2022/01/25 14:32:31;;;;;;;;;68.67;56.67;;;;;;;;5057877;28;8798;-82
2022/01/25 14:35:03;;;;;;;;;77.00;58.67;;;;;;;;5052521;28;8865;-78
2022/01/25 14:37:30;;;;;;;;;82.00;63.00;;;;;;;;5061627;28;9706;-83
2022/01/25 14:40:07;;;;;;;;;81.33;59.67;;;;;;;;5059778;28;8866;-81
2022/01/25 14:42:34;;;;;;;;;82.00;55.33;;;;;;;;5059325;28;8981;-82
2022/01/25 14:45:03;;;;;;;;;74.00;60.00;;;;;;;;5060665;28;8907;-81
2022/01/25 14:47:37;;;;;;;;;77.00;60.00;;;;;;;;5065409;28;8911;-80
2022/01/25 14:50:07;;;;;;;;;72.67;56.67;;;;;;;;5064453;28;8846;-82
2022/01/25 14:52:34;;;;;;;;;86.67;62.33;;;;;;;;5066088;28;8993;-82
2022/01/25 14:55:02;;;;;;;;;77.67;62.00;;;;;;;;5064769;28;8858;-79
2022/01/25 14:57:40;;;;;;;;;77.33;60.67;;;;;;;;5065621;28;8852;-79
2022/01/25 15:00:08;;;;;;;;;62.67;53.67;;;;;;;;5063494;28;8969;-81
2022/01/25 15:02:37;;;;;;;;;87.00;67.33;;;;;;;;5063430;28;8896;-81
2022/01/25 15:05:05;;;;;;;;;83.67;63.00;;;;;;;;5058489;28;8850;-83
2022/01/25 15:07:34;;;;;;;;;71.67;55.33;;;;;;;;5064697;28;8892;-82
2022/01/25 15:10:04;;;;;;;;;68.33;55.67;;;;;;;;5043677;28;8913;-85
2022/01/25 15:12:38;;;;;;;;;66.67;55.00;;;;;;;;5062317;28;8854;-82
2022/01/25 15:15:11;;;;;;;;;71.00;54.00;;;;;;;;5062618;28;8884;-81
2022/01/25 15:17:40;;;;;;;;;76.33;56.00;;;;;;;;5024182;28;8887;-80
2022/01/25 15:20:10;;;;;;;;;65.67;50.67;;;;;;;;5062257;28;9582;-77
2022/01/25 15:22:38;;;;;;;;;62.00;51.00;;;;;;;;5064162;28;8882;-84
2022/01/25 15:25:06;;;;;;;;;66.00;51.00;;;;;;;;5063945;28;8881;-77
2022/01/25 15:27:34;;;;;;;;;60.33;50.00;;;;;;;;5063107;28;8834;-76
2022/01/25 15:30:05;;;;;;;;;63.33;51.00;;;;;;;;5045555;28;8908;-77
2022/01/25 15:32:32;;;;;;;;;59.67;48.00;;;;;;;;5046374;28;8844;-77
2022/01/25 15:35:01;;;;;;;;;69.67;52.33;;;;;;;;5065309;28;8857;-78
2022/01/25 15:37:28;;;;;;;;;66.00;55.33;;;;;;;;5061163;28;8870;-77
2022/01/25 15:39:55;;;;;;;;;68.00;50.00;;;;;;;;5064947;28;8846;-76
2022/01/25 15:42:26;;;;;;;;;63.33;53.00;;;;;;;;5045786;28;8868;-74
2022/01/25 15:44:55;;;;;;;;;63.67;46.67;;;;;;;;5063183;28;8866;-76
2022/01/25 15:47:26;;;;;;;;;69.33;54.00;;;;;;;;5062554;28;8842;-73
2022/01/25 15:49:53;;;;;;;;;72.67;59.67;;;;;;;;5063436;28;8852;-76
2022/01/25 15:52:22;;;;;;;;;62.00;52.67;;;;;;;;5045411;28;9006;-77
2022/01/25 15:54:49;;;;;;;;;71.67;55.67;;;;;;;;5060628;28;8878;-77
2022/01/25 15:57:17;;;;;;;;;66.33;52.67;;;;;;;;5060614;28;8861;-76
2022/01/25 15:59:44;;;;;;;;;66.33;49.33;;;;;;;;5062879;28;9000;-77
2022/01/25 16:02:13;;;;;;;;;67.00;51.33;;;;;;;;5062114;28;9349;-77
2022/01/25 16:04:42;;;;;;;;;68.33;49.67;;;;;;;;5063312;28;8845;-77
2022/01/25 16:07:10;;;;;;;;;74.00;58.00;;;;;;;;5062836;28;8879;-77
2022/01/25 16:09:40;;;;;;;;;63.33;49.67;;;;;;;;5042230;28;8861;-75